createdAt,value
2019-05-12T00:01:38.937Z,8.10
2019-05-12T00:04:11.709Z,8.20
2019-05-12T00:06:44.450Z,10.68
2019-05-12T00:09:18.789Z,9.00
2019-05-12T00:11:50.808Z,8.35
2019-05-12T00:14:23.294Z,9.83
2019-05-12T00:16:57.881Z,10.08
2019-05-12T00:19:31.509Z,9.98
2019-05-12T00:22:04.309Z,8.28
2019-05-12T00:24:38.336Z,8.73
2019-05-12T00:27:17.718Z,10.28
2019-05-12T00:29:49.630Z,10.50
2019-05-12T00:32:22.290Z,8.78
2019-05-12T00:34:54.818Z,8.65
2019-05-12T00:37:29.661Z,12.23
2019-05-12T00:40:02.483Z,14.53
2019-05-12T00:42:35.016Z,8.18
2019-05-12T00:45:09.686Z,9.73
2019-05-12T00:47:43.673Z,12.55
2019-05-12T00:50:18.324Z,12.78
2019-05-12T00:52:50.682Z,10.28
2019-05-12T00:55:23.307Z,7.47
2019-05-12T00:57:57.891Z,10.25
2019-05-12T01:00:29.818Z,12.07
2019-05-12T01:03:02.307Z,11.10
2019-05-12T01:05:34.631Z,11.28
2019-05-12T01:08:08.904Z,12.85
2019-05-12T01:10:43.150Z,11.43
2019-05-12T01:13:15.520Z,14.07
2019-05-12T01:15:48.215Z,14.90
2019-05-12T01:18:20.656Z,16.83
2019-05-12T01:20:53.281Z,16.62
2019-05-12T01:23:27.933Z,13.28
2019-05-12T01:25:59.737Z,13.58
2019-05-12T01:28:34.496Z,13.40
2019-05-12T01:31:08.661Z,16.45
2019-05-12T01:33:41.334Z,23.38
2019-05-12T01:36:15.044Z,20.50
2019-05-12T01:38:48.301Z,16.57
2019-05-12T01:41:21.047Z,17.65
2019-05-12T01:43:53.481Z,17.00
2019-05-12T01:46:28.830Z,26.12
2019-05-12T01:49:01.611Z,21.00
2019-05-12T01:51:34.031Z,23.50
2019-05-12T01:54:11.795Z,23.25
2019-05-12T01:56:40.605Z,19.60
2019-05-12T01:59:13.042Z,23.90
2019-05-12T02:04:18.830Z,28.10
2019-05-12T02:06:52.723Z,22.05
2019-05-12T02:09:28.000Z,31.60
2019-05-12T02:12:00.658Z,25.52
2019-05-12T02:14:33.284Z,27.40
2019-05-12T02:17:05.584Z,27.45
2019-05-12T02:19:39.571Z,22.35
2019-05-12T02:22:12.293Z,23.25
2019-05-12T02:24:45.302Z,24.04
2019-05-12T02:27:17.892Z,17.30
2019-05-12T02:29:50.306Z,23.90
2019-05-12T02:32:25.271Z,21.20
2019-05-12T02:34:56.720Z,30.05
2019-05-12T02:37:29.287Z,22.50
2019-05-12T02:40:04.506Z,28.02
2019-05-12T02:42:35.229Z,23.52
2019-05-12T02:45:10.566Z,25.52
2019-05-12T02:47:45.603Z,22.58
2019-05-12T02:50:34.924Z,27.48
2019-05-12T02:53:06.481Z,23.85
2019-05-12T02:55:39.536Z,23.60
2019-05-12T02:58:16.288Z,25.48
2019-05-12T03:00:49.425Z,27.80
2019-05-12T03:03:28.034Z,23.70
2019-05-12T03:06:05.516Z,35.03
2019-05-12T03:08:39.779Z,27.17
2019-05-12T03:11:14.800Z,25.27
2019-05-12T03:13:46.815Z,26.85
2019-05-12T03:16:19.285Z,26.05
2019-05-12T03:18:51.690Z,30.10
2019-05-12T03:21:24.653Z,23.57
2019-05-12T03:23:57.298Z,27.32
2019-05-12T03:26:29.560Z,34.50
2019-05-12T03:29:05.686Z,22.13
2019-05-12T03:31:41.503Z,25.45
2019-05-12T03:34:18.545Z,26.82
2019-05-12T03:36:51.164Z,24.12
2019-05-12T03:39:21.429Z,25.35
2019-05-12T03:41:54.618Z,30.80
2019-05-12T03:44:28.618Z,23.87
2019-05-12T03:47:01.127Z,23.90
2019-05-12T03:51:27.296Z,30.68
2019-05-12T03:53:59.598Z,29.90
2019-05-12T03:58:59.041Z,30.90
2019-05-12T04:01:31.564Z,24.98
2019-05-12T04:06:38.415Z,26.33
2019-05-12T04:09:14.657Z,25.65
2019-05-12T04:11:46.319Z,22.75
2019-05-12T04:14:20.289Z,24.45
2019-05-12T04:16:55.120Z,27.93
2019-05-12T04:19:29.547Z,27.13
2019-05-12T04:22:05.308Z,25.17
2019-05-12T04:24:36.244Z,27.40
2019-05-12T04:27:10.326Z,26.95
2019-05-12T04:29:44.174Z,31.30
2019-05-12T04:32:15.906Z,30.12
2019-05-12T04:34:48.387Z,26.77
2019-05-12T04:37:24.898Z,27.10
2019-05-12T04:39:57.359Z,32.35
2019-05-12T04:42:29.662Z,26.68
2019-05-12T04:45:04.394Z,25.82
2019-05-12T04:47:37.333Z,34.18
2019-05-12T04:50:10.291Z,22.05
2019-05-12T04:52:44.589Z,28.80
2019-05-12T04:55:16.883Z,24.75
2019-05-12T04:57:49.326Z,26.75
2019-05-12T05:00:25.442Z,25.08
2019-05-12T05:04:56.345Z,26.85
2019-05-12T05:07:28.642Z,25.82
2019-05-12T05:10:04.481Z,28.73
2019-05-12T05:12:35.432Z,23.83
2019-05-12T05:15:09.610Z,22.30
2019-05-12T05:17:44.084Z,25.88
2019-05-12T05:20:16.792Z,26.08
2019-05-12T05:22:49.308Z,18.40
2019-05-12T05:25:23.658Z,23.67
2019-05-12T05:27:55.786Z,27.53
2019-05-12T05:30:28.295Z,22.52
2019-05-12T05:33:04.659Z,23.35
2019-05-12T05:35:39.842Z,23.40
2019-05-12T05:38:19.080Z,20.77
2019-05-12T05:40:47.860Z,25.98
2019-05-12T05:43:20.654Z,25.50
2019-05-12T05:46:02.731Z,20.15
2019-05-12T05:48:32.173Z,21.97
2019-05-12T05:51:05.888Z,27.58
2019-05-12T05:56:09.598Z,21.35
2019-05-12T06:01:17.207Z,20.75
2019-05-12T06:03:49.735Z,26.55
2019-05-12T06:06:23.767Z,26.20
2019-05-12T06:08:59.909Z,18.27
2019-05-12T06:11:35.375Z,20.62
2019-05-12T06:14:12.949Z,26.42
2019-05-12T06:16:43.345Z,18.05
2019-05-12T06:19:17.292Z,17.10
2019-05-12T06:21:53.413Z,19.12
2019-05-12T06:24:25.876Z,23.83
2019-05-12T06:27:00.817Z,24.35
2019-05-12T06:29:35.327Z,19.25
2019-05-12T06:32:10.781Z,22.17
2019-05-12T06:34:43.549Z,22.35
2019-05-12T06:37:17.395Z,18.72
2019-05-12T06:39:50.930Z,20.65
2019-05-12T06:42:26.647Z,21.02
2019-05-12T06:44:59.422Z,15.60
2019-05-12T06:47:34.365Z,20.80
2019-05-12T06:50:08.703Z,22.58
2019-05-12T06:52:44.590Z,15.80
2019-05-12T06:55:15.510Z,15.25
2019-05-12T06:57:50.286Z,14.80
2019-05-12T07:00:30.847Z,14.24
2019-05-12T07:02:56.853Z,16.02
2019-05-12T07:08:17.849Z,17.60
2019-05-12T07:10:57.805Z,17.44
2019-05-12T07:13:24.878Z,18.66
2019-05-12T07:15:58.315Z,16.97
2019-05-12T07:18:36.951Z,15.60
2019-05-12T07:21:09.425Z,18.40
2019-05-12T07:23:44.439Z,16.60
2019-05-12T07:26:19.308Z,16.20
2019-05-12T07:28:53.922Z,11.62
2019-05-12T07:31:26.329Z,11.50
2019-05-12T07:33:58.977Z,22.15
2019-05-12T07:36:34.297Z,16.62
2019-05-12T07:39:09.548Z,14.10
2019-05-12T07:41:50.642Z,13.55
2019-05-12T07:44:22.094Z,16.22
2019-05-12T07:46:54.214Z,16.55
2019-05-12T07:49:34.219Z,16.25
2019-05-12T07:52:03.414Z,14.70
2019-05-12T07:54:39.302Z,11.05
2019-05-12T07:57:12.233Z,15.68
2019-05-12T08:02:23.259Z,12.10
2019-05-12T08:04:55.271Z,12.60
2019-05-12T08:07:29.839Z,10.88
2019-05-12T08:10:07.172Z,12.30
2019-05-12T08:12:37.706Z,7.90
2019-05-12T08:15:13.600Z,11.12
2019-05-12T08:17:49.327Z,10.90
2019-05-12T08:20:23.752Z,11.75
2019-05-12T08:22:59.606Z,9.25
2019-05-12T08:25:29.787Z,12.95
2019-05-12T08:28:12.321Z,12.63
2019-05-12T08:30:45.805Z,13.68
2019-05-12T08:33:14.717Z,14.50
2019-05-12T08:35:48.423Z,10.48
2019-05-12T08:38:21.003Z,10.70
2019-05-12T08:40:54.332Z,10.80
2019-05-12T08:43:27.291Z,8.03
2019-05-12T08:46:00.354Z,8.98
2019-05-12T08:48:34.567Z,7.53
2019-05-12T08:51:14.361Z,13.10
2019-05-12T08:53:43.982Z,9.63
2019-05-12T08:56:19.393Z,8.35
2019-05-12T08:58:54.362Z,7.90
2019-05-12T09:01:30.769Z,11.12
2019-05-12T09:04:06.559Z,10.13
2019-05-12T09:06:36.910Z,9.20
2019-05-12T09:09:11.440Z,10.40
2019-05-12T09:11:44.181Z,6.17
2019-05-12T09:14:16.893Z,8.03
2019-05-12T09:16:53.753Z,8.08
2019-05-12T09:19:26.657Z,9.42
2019-05-12T09:21:58.043Z,7.93
2019-05-12T09:27:04.983Z,10.38
2019-05-12T09:29:37.674Z,11.03
2019-05-12T09:32:14.739Z,12.15
2019-05-12T09:34:52.954Z,9.43
2019-05-12T09:37:24.630Z,10.55
2019-05-12T09:39:57.042Z,8.80
2019-05-12T09:42:30.165Z,10.98
2019-05-12T09:45:06.054Z,8.70
2019-05-12T09:47:37.339Z,8.05
2019-05-12T09:50:18.244Z,8.30
2019-05-12T09:52:48.963Z,6.10
2019-05-12T09:55:24.786Z,9.65
2019-05-12T09:57:56.748Z,10.07
2019-05-12T10:00:30.291Z,9.68
2019-05-12T10:03:04.862Z,15.03
2019-05-12T10:05:41.165Z,8.78
2019-05-12T10:08:13.919Z,10.05
2019-05-12T10:10:53.609Z,6.05
2019-05-12T10:13:30.046Z,7.62
2019-05-12T10:16:07.420Z,9.58
2019-05-12T10:18:34.679Z,5.45
2019-05-12T10:21:10.186Z,8.08
2019-05-12T10:23:43.487Z,7.72
2019-05-12T10:26:19.063Z,11.63
2019-05-12T10:28:57.880Z,7.62
2019-05-12T10:31:29.575Z,11.68
2019-05-12T10:34:20.667Z,9.47
2019-05-12T10:36:58.668Z,6.83
2019-05-12T10:39:43.302Z,8.73
2019-05-12T10:42:17.820Z,8.85
2019-05-12T10:44:53.261Z,5.14
2019-05-12T10:47:24.467Z,5.96
2019-05-12T10:49:56.733Z,6.53
2019-05-12T10:52:33.928Z,8.73
2019-05-12T10:55:04.441Z,10.95
2019-05-12T10:57:37.061Z,11.63
2019-05-12T11:00:19.662Z,10.13
2019-05-12T11:02:53.516Z,20.87
2019-05-12T11:05:26.225Z,8.63
2019-05-12T11:08:00.334Z,19.12
2019-05-12T11:10:33.662Z,13.90
2019-05-12T11:14:09.637Z,14.58
2019-05-12T11:16:44.539Z,15.18
2019-05-12T11:19:16.291Z,13.28
2019-05-12T11:21:50.326Z,10.25
2019-05-12T11:24:22.726Z,13.35
2019-05-12T11:26:55.341Z,10.80
2019-05-12T11:29:27.694Z,8.13
2019-05-12T11:32:00.372Z,14.45
2019-05-12T11:34:33.578Z,12.55
2019-05-12T11:37:06.289Z,10.80
2019-05-12T11:39:44.356Z,14.10
2019-05-12T11:42:13.661Z,13.25
2019-05-12T11:44:47.478Z,11.38
2019-05-12T11:47:24.431Z,11.02
2019-05-12T11:49:58.517Z,8.14
2019-05-12T11:52:28.682Z,10.82
2019-05-12T11:55:02.610Z,6.10
2019-05-12T11:57:35.306Z,7.83
2019-05-12T12:00:13.631Z,8.95
2019-05-12T12:02:45.393Z,7.13
2019-05-12T12:05:17.837Z,6.42
2019-05-12T12:07:52.741Z,4.56
2019-05-12T12:10:29.403Z,10.08
2019-05-12T12:13:03.694Z,5.60
2019-05-12T12:15:34.707Z,6.03
2019-05-12T12:18:13.292Z,8.40
2019-05-12T12:20:44.105Z,7.12
2019-05-12T12:23:18.731Z,6.92
2019-05-12T12:25:53.278Z,9.38
2019-05-12T12:28:25.610Z,8.12
2019-05-12T12:31:01.894Z,13.10
2019-05-12T12:33:38.648Z,6.33
2019-05-12T12:36:08.964Z,7.17
2019-05-12T12:38:40.937Z,9.08
2019-05-12T12:41:13.487Z,8.68
2019-05-12T12:43:45.790Z,3.80
2019-05-12T12:46:25.677Z,6.35
2019-05-12T12:49:00.427Z,5.00
2019-05-12T12:51:34.143Z,6.33
2019-05-12T12:54:07.298Z,5.85
2019-05-12T12:56:39.575Z,5.03
2019-05-12T12:59:14.560Z,4.25
2019-05-12T13:01:46.297Z,6.42
2019-05-12T13:04:18.733Z,6.47
2019-05-12T13:06:51.286Z,5.10
2019-05-12T13:09:24.750Z,6.62
2019-05-12T13:11:57.488Z,4.60
2019-05-12T13:14:34.612Z,4.33
2019-05-12T13:17:04.242Z,7.37
2019-05-12T13:19:43.676Z,3.17
2019-05-12T13:22:19.134Z,11.43
2019-05-12T13:24:58.331Z,7.35
2019-05-12T13:27:29.263Z,7.50
2019-05-12T13:32:38.042Z,5.08
2019-05-12T13:35:16.550Z,3.75
2019-05-12T13:37:50.463Z,6.60
2019-05-12T13:40:23.264Z,3.43
2019-05-12T13:45:27.046Z,6.62
2019-05-12T13:50:31.366Z,5.40
2019-05-12T13:55:42.683Z,3.58
2019-05-12T14:00:50.881Z,3.67
2019-05-12T14:03:50.661Z,3.70
2019-05-12T14:06:31.566Z,3.85
2019-05-12T14:08:57.681Z,3.72
2019-05-12T14:11:30.050Z,4.55
2019-05-12T14:14:10.811Z,1.98
2019-05-12T14:16:36.619Z,3.92
2019-05-12T14:19:09.298Z,5.97
2019-05-12T14:21:43.426Z,4.40
2019-05-12T14:24:15.783Z,2.27
2019-05-12T14:26:53.380Z,2.33
2019-05-12T14:29:29.263Z,4.04
2019-05-12T14:32:03.152Z,4.35
2019-05-12T14:34:34.378Z,1.95
2019-05-12T14:37:10.255Z,4.35
2019-05-12T14:39:46.230Z,2.60
2019-05-12T14:42:16.044Z,2.17
2019-05-12T14:44:49.833Z,1.67
2019-05-12T14:47:25.663Z,3.10
2019-05-12T14:49:56.689Z,2.05
2019-05-12T14:52:30.099Z,6.57
2019-05-12T14:55:03.412Z,4.13
2019-05-12T14:57:39.222Z,2.17
2019-05-12T15:00:16.168Z,3.45
2019-05-12T15:02:45.520Z,2.95
2019-05-12T15:05:18.368Z,2.05
2019-05-12T15:07:54.401Z,2.35
2019-05-12T15:10:26.054Z,1.66
2019-05-12T15:12:58.457Z,1.75
2019-05-12T15:15:33.453Z,4.37
2019-05-12T15:18:10.126Z,5.85
2019-05-12T15:20:48.967Z,2.20
2019-05-12T15:23:15.591Z,3.33
2019-05-12T15:25:50.892Z,3.05
2019-05-12T15:28:23.642Z,1.12
2019-05-12T15:31:00.379Z,1.87
2019-05-12T15:33:33.613Z,2.23
2019-05-12T15:36:09.838Z,2.67
2019-05-12T15:38:43.723Z,2.22
2019-05-12T15:41:19.970Z,4.62
2019-05-12T15:43:53.653Z,3.72
2019-05-12T15:46:26.110Z,2.96
2019-05-12T15:50:04.069Z,2.65
2019-05-12T15:52:42.278Z,2.60
2019-05-12T15:55:13.663Z,2.52
2019-05-12T15:57:47.490Z,1.95
2019-05-12T16:00:21.288Z,2.40
2019-05-12T16:02:53.724Z,2.92
2019-05-12T16:05:30.830Z,1.98
2019-05-12T16:08:00.557Z,5.12
2019-05-12T16:10:33.306Z,1.65
2019-05-12T16:13:05.832Z,3.98
2019-05-12T16:18:10.749Z,1.98
2019-05-12T16:20:44.308Z,2.02
2019-05-12T16:23:25.062Z,1.67
2019-05-12T16:25:54.127Z,2.44
2019-05-12T16:28:26.793Z,5.98
2019-05-12T16:31:06.720Z,2.75
2019-05-12T16:33:36.365Z,6.17
2019-05-12T16:36:11.403Z,3.20
2019-05-12T16:38:44.489Z,2.40
2019-05-12T16:41:19.867Z,2.17
2019-05-12T16:43:53.753Z,5.37
2019-05-12T16:46:27.061Z,3.62
2019-05-12T16:49:03.619Z,6.42
2019-05-12T16:51:36.607Z,3.58
2019-05-12T16:54:09.319Z,2.77
2019-05-12T16:56:43.467Z,6.92
2019-05-12T16:59:21.803Z,4.25
2019-05-12T17:01:54.257Z,7.67
2019-05-12T17:04:26.822Z,5.30
2019-05-12T17:06:59.334Z,6.77
2019-05-12T17:09:33.199Z,4.20
2019-05-12T17:12:05.739Z,3.70
2019-05-12T17:14:47.985Z,6.60
2019-05-12T17:19:57.471Z,3.90
2019-05-12T17:22:29.874Z,5.50
2019-05-12T17:25:04.964Z,4.40
2019-05-12T17:27:36.902Z,7.08
2019-05-12T17:30:13.379Z,2.50
2019-05-12T17:32:57.828Z,5.75
2019-05-12T17:35:26.996Z,2.96
2019-05-12T17:37:58.501Z,2.87
2019-05-12T17:40:30.916Z,4.43
2019-05-12T17:43:11.610Z,2.80
2019-05-12T17:45:39.296Z,2.83
2019-05-12T17:48:15.941Z,4.35
2019-05-12T17:50:50.586Z,3.45
2019-05-12T17:53:24.319Z,5.20
2019-05-12T17:55:56.775Z,3.42
2019-05-12T17:58:29.690Z,2.95
2019-05-12T18:01:03.768Z,5.53
2019-05-12T18:03:39.328Z,4.95
2019-05-12T18:06:10.507Z,3.87
2019-05-12T18:08:44.292Z,5.03
2019-05-12T18:11:17.358Z,1.90
2019-05-12T18:13:49.786Z,2.47
2019-05-12T18:16:24.949Z,3.17
2019-05-12T18:18:58.535Z,3.83
2019-05-12T18:21:31.765Z,5.45
2019-05-12T18:24:10.977Z,2.10
2019-05-12T18:29:16.397Z,5.90
2019-05-12T18:31:48.833Z,4.33
2019-05-12T18:34:25.255Z,3.98
2019-05-12T18:36:59.684Z,4.30
2019-05-12T18:42:03.680Z,7.33
2019-05-12T18:44:37.293Z,6.42
2019-05-12T18:47:09.608Z,4.70
2019-05-12T18:52:18.579Z,3.40
2019-05-12T18:54:52.668Z,2.70
2019-05-12T18:57:25.405Z,2.65
2019-05-12T19:00:03.810Z,3.46
2019-05-12T19:02:33.468Z,4.37
2019-05-12T19:05:12.828Z,4.75
2019-05-12T19:07:43.880Z,4.08
2019-05-12T19:10:16.397Z,4.72
2019-05-12T19:12:51.741Z,3.85
2019-05-12T19:15:24.817Z,4.25
2019-05-12T19:17:57.438Z,5.30
2019-05-12T19:20:34.486Z,2.70
2019-05-12T19:23:04.313Z,4.72
2019-05-12T19:25:40.715Z,6.03
2019-05-12T19:28:13.520Z,6.70
2019-05-12T19:30:46.504Z,4.60
2019-05-12T19:33:18.901Z,4.90
2019-05-12T19:46:25.463Z,4.55
2019-05-12T19:48:57.883Z,6.48
2019-05-12T19:51:30.383Z,2.83
2019-05-12T19:54:03.509Z,2.42
2019-05-12T19:56:39.605Z,3.58
2019-05-12T19:59:14.673Z,3.47
2019-05-12T20:01:47.303Z,3.80
2019-05-12T20:04:30.871Z,9.80
2019-05-12T20:06:55.382Z,4.72
2019-05-12T20:09:28.306Z,3.22
2019-05-12T20:15:45.038Z,6.00
2019-05-12T20:18:17.489Z,6.15
2019-05-12T20:20:50.623Z,8.63
2019-05-12T20:23:24.603Z,5.10
2019-05-12T20:25:58.751Z,4.22
2019-05-12T20:28:31.520Z,6.90
2019-05-12T20:31:06.145Z,10.18
2019-05-12T20:33:39.310Z,10.30
2019-05-12T20:36:14.267Z,5.90
2019-05-12T20:38:46.813Z,11.22
2019-05-12T20:41:23.799Z,6.72
2019-05-12T20:43:54.041Z,8.35
2019-05-12T20:46:26.447Z,7.60
2019-05-12T20:49:01.219Z,11.16
2019-05-12T20:51:34.056Z,11.15
2019-05-12T20:54:14.093Z,9.13
2019-05-12T20:56:40.715Z,11.25
2019-05-12T20:59:21.690Z,6.80
2019-05-12T21:01:50.677Z,5.45
2019-05-12T21:04:31.152Z,3.68
2019-05-12T21:06:58.301Z,5.84
2019-05-12T21:09:30.709Z,5.25
2019-05-12T21:12:03.286Z,2.85
2019-05-12T21:14:35.647Z,5.65
2019-05-12T21:17:09.404Z,3.95
2019-05-12T21:19:55.655Z,5.33
2019-05-12T21:22:19.305Z,2.20
2019-05-12T21:24:53.385Z,3.27
2019-05-12T21:27:26.075Z,5.42
2019-05-12T21:30:00.698Z,5.36
2019-05-12T21:32:33.915Z,3.33
2019-05-12T21:35:18.441Z,2.10
2019-05-12T21:37:45.872Z,5.25
2019-05-12T21:40:15.888Z,4.65
2019-05-12T21:42:48.412Z,2.12
2019-05-12T21:45:28.706Z,2.47
2019-05-12T21:47:56.808Z,4.03
2019-05-12T21:50:37.949Z,8.75
2019-05-12T21:53:04.323Z,4.28
2019-05-12T21:55:37.346Z,5.75
2019-05-12T21:58:12.157Z,3.70
2019-05-12T22:00:59.502Z,2.20
2019-05-12T22:03:28.295Z,3.58
2019-05-12T22:06:06.417Z,5.35
2019-05-12T22:08:35.293Z,2.58
2019-05-12T22:11:11.619Z,7.92
2019-05-12T22:13:46.799Z,4.45
2019-05-12T22:16:17.635Z,3.37
2019-05-12T22:18:56.139Z,3.00
2019-05-12T22:21:24.584Z,2.22
2019-05-12T22:23:57.294Z,5.22
2019-05-12T22:26:30.724Z,5.80
2019-05-12T22:29:04.441Z,5.50
2019-05-12T22:31:48.211Z,5.50
2019-05-12T22:34:19.493Z,2.35
2019-05-12T22:36:59.055Z,3.77
2019-05-12T22:39:34.167Z,1.74
2019-05-12T22:42:11.487Z,3.73
2019-05-12T22:44:43.778Z,7.05
2019-05-12T22:47:17.598Z,2.67
2019-05-12T22:49:52.069Z,5.17
2019-05-12T22:52:25.308Z,4.85
2019-05-12T22:55:03.493Z,5.55
2019-05-12T22:57:38.245Z,4.10
2019-05-12T23:00:13.520Z,2.42
2019-05-12T23:02:45.309Z,2.80
2019-05-12T23:05:20.519Z,4.58
2019-05-12T23:07:54.292Z,3.22
2019-05-12T23:10:33.063Z,2.37
2019-05-12T23:13:06.316Z,1.65
2019-05-12T23:15:45.207Z,6.10
2019-05-12T23:18:13.659Z,5.05
2019-05-12T23:20:46.440Z,3.67
2019-05-12T23:23:19.012Z,5.95
2019-05-12T23:26:00.103Z,3.22
2019-05-12T23:28:25.729Z,5.12
2019-05-12T23:30:58.300Z,3.08
2019-05-12T23:33:36.545Z,2.42
2019-05-12T23:36:09.659Z,5.75
2019-05-12T23:38:38.899Z,2.77
2019-05-12T23:41:13.437Z,2.90
2019-05-12T23:43:45.407Z,2.75
2019-05-12T23:46:17.693Z,2.47
2019-05-12T23:48:50.299Z,2.85
2019-05-12T23:51:23.597Z,4.30
2019-05-12T23:53:56.583Z,2.98
2019-05-12T23:56:29.173Z,5.05
2019-05-12T23:59:01.457Z,4.37
